createdAt,value
2023-05-14T00:01:05.366Z,12.40
2023-05-14T00:03:33.982Z,13.30
2023-05-14T00:06:02.548Z,13.90
2023-05-14T00:08:30.882Z,16.80
2023-05-14T00:10:59.288Z,12.00
2023-05-14T00:13:27.575Z,17.70
2023-05-14T00:15:55.835Z,17.80
2023-05-14T00:18:24.168Z,14.50
2023-05-14T00:20:55.016Z,13.70
2023-05-14T00:23:23.943Z,18.20
2023-05-14T00:25:52.163Z,12.70
2023-05-14T00:28:21.153Z,11.60
2023-05-14T00:30:49.971Z,12.30
2023-05-14T00:33:18.113Z,10.80
2023-05-14T00:35:46.248Z,9.30
2023-05-14T00:38:17.747Z,12.20
2023-05-14T00:40:51.423Z,12.10
2023-05-14T00:43:21.296Z,9.40
2023-05-14T00:45:54.557Z,9.70
2023-05-14T00:48:23.597Z,8.30
2023-05-14T00:50:51.966Z,12.10
2023-05-14T00:53:21.389Z,11.90
2023-05-14T00:55:50.596Z,14.80
2023-05-14T00:58:19.862Z,11.40
2023-05-14T01:00:48.288Z,12.10
2023-05-14T01:03:16.777Z,14.60
2023-05-14T01:06:17.400Z,10.70
2023-05-14T01:09:25.547Z,12.50
2023-05-14T01:12:05.603Z,9.20
2023-05-14T01:14:41.726Z,11.40
2023-05-14T01:17:13.514Z,10.40
2023-05-14T01:19:45.724Z,11.30
2023-05-14T01:22:14.326Z,12.10
2023-05-14T01:24:42.537Z,13.30
2023-05-14T01:27:18.758Z,8.90
2023-05-14T01:29:59.311Z,19.20
2023-05-14T01:32:30.698Z,14.90
2023-05-14T01:35:01.564Z,11.30
2023-05-14T01:37:31.301Z,8.80
2023-05-14T01:40:00.534Z,11.60
2023-05-14T01:42:29.455Z,10.40
2023-05-14T01:44:58.213Z,11.90
2023-05-14T01:47:26.580Z,12.70
2023-05-14T01:49:55.068Z,14.20
2023-05-14T01:52:23.581Z,10.10
2023-05-14T01:54:51.992Z,13.20
2023-05-14T01:57:21.515Z,13.10
2023-05-14T01:59:49.838Z,15.60
2023-05-14T02:02:18.059Z,13.50
2023-05-14T02:04:46.724Z,15.00
2023-05-14T02:07:15.127Z,14.80
2023-05-14T02:09:43.380Z,10.80
2023-05-14T02:12:12.047Z,13.80
2023-05-14T02:14:40.373Z,14.10
2023-05-14T02:17:09.277Z,12.60
2023-05-14T02:19:37.537Z,13.00
2023-05-14T02:22:05.884Z,12.60
2023-05-14T02:24:35.550Z,14.50
2023-05-14T02:27:03.885Z,15.60
2023-05-14T02:29:32.326Z,12.00
2023-05-14T02:32:00.560Z,17.90
2023-05-14T02:34:28.772Z,15.60
2023-05-14T02:36:56.908Z,12.30
2023-05-14T02:39:25.095Z,15.80
2023-05-14T02:41:53.473Z,18.30
2023-05-14T02:44:22.153Z,13.70
2023-05-14T02:46:50.643Z,12.50
2023-05-14T02:49:18.912Z,17.30
2023-05-14T02:51:47.316Z,14.50
2023-05-14T02:54:16.933Z,15.00
2023-05-14T02:56:45.265Z,13.40
2023-05-14T02:59:13.458Z,12.60
2023-05-14T03:01:42.552Z,11.70
2023-05-14T03:04:11.386Z,8.40
2023-05-14T03:06:39.564Z,12.60
2023-05-14T03:09:07.897Z,13.90
2023-05-14T03:11:36.116Z,11.10
2023-05-14T03:14:04.555Z,9.20
2023-05-14T03:16:32.983Z,14.60
2023-05-14T03:19:01.437Z,9.50
2023-05-14T03:21:29.820Z,8.60
2023-05-14T03:23:58.063Z,14.60
2023-05-14T03:26:26.335Z,13.80
2023-05-14T03:28:55.105Z,17.00
2023-05-14T03:31:23.295Z,13.80
2023-05-14T03:33:51.573Z,12.20
2023-05-14T03:36:19.658Z,13.40
2023-05-14T03:38:49.042Z,15.50
2023-05-14T03:41:20.071Z,9.40
2023-05-14T03:43:48.330Z,14.90
2023-05-14T03:46:16.768Z,14.60
2023-05-14T03:48:45.054Z,14.00
2023-05-14T03:51:13.666Z,14.40
2023-05-14T03:53:42.002Z,15.60
2023-05-14T03:56:10.415Z,11.80
2023-05-14T03:58:38.890Z,16.50
2023-05-14T04:01:07.147Z,17.70
2023-05-14T04:03:35.809Z,14.50
2023-05-14T04:06:04.585Z,17.00
2023-05-14T04:08:32.670Z,15.70
2023-05-14T04:11:01.523Z,12.70
2023-05-14T04:13:29.696Z,15.40
2023-05-14T04:15:57.865Z,12.00
2023-05-14T04:18:26.042Z,11.60
2023-05-14T04:20:54.532Z,21.40
2023-05-14T04:23:22.695Z,15.60
2023-05-14T04:25:51.438Z,16.00
2023-05-14T04:28:19.624Z,10.60
2023-05-14T04:30:48.965Z,20.60
2023-05-14T04:33:17.155Z,21.10
2023-05-14T04:35:46.144Z,15.70
2023-05-14T04:38:14.610Z,13.80
2023-05-14T04:40:42.942Z,10.40
2023-05-14T04:43:10.991Z,12.80
2023-05-14T04:45:41.141Z,10.30
2023-05-14T04:48:09.543Z,11.00
2023-05-14T04:50:37.754Z,10.30
2023-05-14T04:53:05.869Z,12.40
2023-05-14T04:55:34.059Z,10.30
2023-05-14T04:58:02.342Z,11.70
2023-05-14T05:00:30.824Z,10.70
2023-05-14T05:02:59.194Z,10.40
2023-05-14T05:05:27.422Z,9.90
2023-05-14T05:07:55.783Z,10.80
2023-05-14T05:10:24.479Z,9.30
2023-05-14T05:12:53.018Z,9.70
2023-05-14T05:15:21.248Z,9.40
2023-05-14T05:17:49.510Z,10.50
2023-05-14T05:20:17.870Z,10.00
2023-05-14T05:22:46.119Z,9.30
2023-05-14T05:25:14.468Z,8.60
2023-05-14T05:27:42.875Z,5.20
2023-05-14T05:30:11.638Z,10.90
2023-05-14T05:32:39.920Z,6.40
2023-05-14T05:35:08.527Z,12.00
2023-05-14T05:37:36.864Z,9.10
2023-05-14T05:40:06.517Z,7.80
2023-05-14T05:42:34.827Z,7.10
2023-05-14T05:45:03.039Z,8.60
2023-05-14T05:47:31.405Z,10.40
2023-05-14T05:50:00.068Z,11.00
2023-05-14T05:52:28.352Z,8.50
2023-05-14T05:54:56.692Z,6.10
2023-05-14T05:57:27.234Z,7.30
2023-05-14T06:00:23.220Z,8.10
2023-05-14T06:02:56.529Z,9.00
2023-05-14T06:05:25.111Z,6.30
2023-05-14T06:07:53.921Z,6.60
2023-05-14T06:10:22.507Z,7.00
2023-05-14T06:12:51.014Z,6.10
2023-05-14T06:15:19.340Z,6.50
2023-05-14T06:17:47.697Z,7.30
2023-05-14T06:20:15.829Z,9.30
2023-05-14T06:22:44.119Z,7.20
2023-05-14T06:25:12.340Z,8.70
2023-05-14T06:27:40.705Z,11.60
2023-05-14T06:30:09.342Z,6.90
2023-05-14T06:32:37.734Z,7.10
2023-05-14T06:35:06.679Z,8.60
2023-05-14T06:37:34.917Z,10.10
2023-05-14T06:40:03.718Z,14.10
2023-05-14T06:42:31.884Z,5.30
2023-05-14T06:45:00.188Z,8.70
2023-05-14T06:47:28.309Z,10.80
2023-05-14T06:49:58.876Z,6.30
2023-05-14T06:52:27.148Z,6.60
2023-05-14T06:54:55.277Z,4.50
2023-05-14T06:57:23.357Z,6.50
2023-05-14T06:59:51.656Z,7.00
2023-05-14T07:02:20.055Z,7.00
2023-05-14T07:04:48.559Z,4.90
2023-05-14T07:07:20.700Z,8.40
2023-05-14T07:09:48.921Z,8.40
2023-05-14T07:12:17.421Z,8.20
2023-05-14T07:14:46.871Z,6.30
2023-05-14T07:17:15.430Z,8.00
2023-05-14T07:19:43.636Z,7.40
2023-05-14T07:22:11.714Z,8.20
2023-05-14T07:24:39.938Z,7.00
2023-05-14T07:27:08.720Z,6.00
2023-05-14T07:29:37.060Z,6.30
2023-05-14T07:32:05.288Z,6.10
2023-05-14T07:34:33.752Z,6.50
2023-05-14T07:37:02.509Z,6.60
2023-05-14T07:39:31.133Z,7.20
2023-05-14T07:42:01.119Z,5.40
2023-05-14T07:44:29.296Z,7.20
2023-05-14T07:46:57.607Z,7.00
2023-05-14T07:49:25.954Z,5.70
2023-05-14T07:51:54.960Z,6.30
2023-05-14T07:54:23.126Z,6.80
2023-05-14T07:56:51.343Z,5.50
2023-05-14T07:59:19.644Z,6.30
2023-05-14T08:01:47.946Z,4.90
2023-05-14T08:04:16.528Z,5.80
2023-05-14T08:06:44.851Z,5.70
2023-05-14T08:09:14.236Z,8.60
2023-05-14T08:11:42.723Z,7.00
2023-05-14T08:14:11.312Z,6.30
2023-05-14T08:16:39.800Z,7.10
2023-05-14T08:19:08.091Z,13.40
2023-05-14T08:21:36.358Z,6.30
2023-05-14T08:24:04.839Z,6.60
2023-05-14T08:26:33.576Z,7.60
2023-05-14T08:29:01.804Z,6.30
2023-05-14T08:31:30.145Z,7.60
2023-05-14T08:33:58.594Z,6.80
2023-05-14T08:36:27.018Z,5.90
2023-05-14T08:38:55.400Z,10.30
2023-05-14T08:41:23.656Z,7.80
2023-05-14T08:44:09.538Z,13.00
2023-05-14T08:46:39.181Z,6.80
2023-05-14T08:49:40.973Z,8.70
2023-05-14T08:52:10.185Z,8.10
2023-05-14T08:54:39.273Z,7.80
2023-05-14T08:57:10.718Z,7.00
2023-05-14T08:59:38.870Z,5.30
2023-05-14T09:02:10.238Z,8.40
2023-05-14T09:04:39.994Z,6.30
2023-05-14T09:07:08.497Z,10.20
2023-05-14T09:09:37.770Z,6.80
2023-05-14T09:12:07.605Z,5.70
2023-05-14T09:14:35.833Z,7.90
2023-05-14T09:17:04.777Z,6.70
2023-05-14T09:19:33.224Z,4.80
2023-05-14T09:22:01.419Z,4.40
2023-05-14T09:24:29.668Z,7.10
2023-05-14T09:26:59.154Z,6.30
2023-05-14T09:29:29.382Z,7.70
2023-05-14T09:32:00.427Z,6.40
2023-05-14T09:34:31.167Z,7.70
2023-05-14T09:37:05.132Z,5.90
2023-05-14T09:39:36.499Z,4.80
2023-05-14T09:42:05.291Z,6.30
2023-05-14T09:44:33.610Z,4.20
2023-05-14T09:47:01.936Z,5.80
2023-05-14T09:49:30.271Z,4.20
2023-05-14T09:51:58.963Z,7.80
2023-05-14T09:54:27.722Z,5.50
2023-05-14T09:56:56.051Z,6.80
2023-05-14T09:59:24.269Z,5.20
2023-05-14T10:01:52.989Z,5.70
2023-05-14T10:04:23.352Z,7.40
2023-05-14T10:06:53.439Z,5.50
2023-05-14T10:09:26.354Z,4.50
2023-05-14T10:12:01.384Z,9.90
2023-05-14T10:14:41.251Z,5.60
2023-05-14T10:17:18.417Z,6.00
2023-05-14T10:19:54.859Z,5.70
2023-05-14T10:22:24.558Z,4.90
2023-05-14T10:24:54.165Z,5.20
2023-05-14T10:27:23.934Z,6.50
2023-05-14T10:29:56.147Z,7.60
2023-05-14T10:32:26.556Z,5.80
2023-05-14T10:34:54.840Z,5.70
2023-05-14T10:37:25.652Z,5.20
2023-05-14T10:40:01.856Z,10.40
2023-05-14T10:42:36.114Z,5.30
2023-05-14T10:45:07.736Z,6.30
2023-05-14T10:47:38.274Z,5.00
2023-05-14T10:50:10.347Z,5.50
2023-05-14T10:52:40.955Z,6.10
2023-05-14T10:55:14.868Z,10.00
2023-05-14T10:57:44.937Z,5.30
2023-05-14T11:00:14.984Z,6.10
2023-05-14T11:02:45.158Z,5.00
2023-05-14T11:05:17.432Z,4.50
2023-05-14T11:07:48.837Z,5.60
2023-05-14T11:10:18.975Z,5.40
2023-05-14T11:12:49.573Z,4.30
2023-05-14T11:15:26.318Z,5.90
2023-05-14T11:17:54.716Z,5.40
2023-05-14T11:20:23.228Z,7.40
2023-05-14T11:22:53.684Z,5.20
2023-05-14T11:25:22.991Z,6.30
2023-05-14T11:27:51.593Z,5.00
2023-05-14T11:30:20.690Z,9.10
2023-05-14T11:32:50.428Z,6.70
2023-05-14T11:35:18.751Z,5.20
2023-05-14T11:37:54.411Z,6.30
2023-05-14T11:40:22.811Z,6.60
2023-05-14T11:42:53.449Z,5.10
2023-05-14T11:45:27.065Z,7.90
2023-05-14T11:47:56.087Z,5.00
2023-05-14T11:50:24.824Z,5.60
2023-05-14T11:52:57.281Z,6.40
2023-05-14T11:57:54.439Z,6.30
2023-05-14T12:00:24.871Z,6.60
2023-05-14T12:02:54.569Z,4.20
2023-05-14T12:05:22.750Z,7.80
2023-05-14T12:07:51.157Z,7.30
2023-05-14T12:10:19.405Z,5.80
2023-05-14T12:12:49.282Z,6.70
2023-05-14T12:15:17.528Z,5.00
2023-05-14T12:17:52.284Z,4.80
2023-05-14T12:20:20.729Z,6.60
2023-05-14T12:22:49.007Z,5.10
2023-05-14T12:25:17.357Z,8.50
2023-05-14T12:27:45.905Z,4.60
2023-05-14T12:35:15.019Z,7.50
2023-05-14T12:37:43.298Z,12.70
2023-05-14T12:40:13.775Z,8.70
2023-05-14T12:42:42.520Z,11.40
2023-05-14T12:45:11.508Z,9.30
2023-05-14T12:47:39.775Z,7.90
2023-05-14T12:50:08.374Z,9.60
2023-05-14T12:52:39.254Z,4.20
2023-05-14T12:55:09.367Z,4.70
2023-05-14T12:57:39.359Z,5.00
2023-05-14T13:00:14.123Z,4.30
2023-05-14T13:02:43.925Z,6.80
2023-05-14T13:05:13.040Z,4.70
2023-05-14T13:07:41.501Z,5.30
2023-05-14T13:10:10.443Z,5.10
2023-05-14T13:12:38.913Z,4.90
2023-05-14T13:15:07.882Z,6.00
2023-05-14T13:17:36.652Z,5.70
2023-05-14T13:20:05.360Z,7.10
2023-05-14T13:22:33.752Z,8.90
2023-05-14T13:25:01.941Z,12.10
2023-05-14T13:27:30.673Z,8.30
2023-05-14T13:29:58.743Z,7.60
2023-05-14T13:32:27.214Z,8.10
2023-05-14T13:34:58.545Z,7.70
2023-05-14T13:37:35.352Z,11.00
2023-05-14T13:40:04.976Z,6.70
2023-05-14T13:42:33.325Z,5.60
2023-05-14T13:45:01.609Z,7.60
2023-05-14T13:47:29.905Z,9.80
2023-05-14T13:49:58.284Z,4.60
2023-05-14T13:52:26.641Z,6.70
2023-05-14T13:54:54.878Z,7.90
2023-05-14T13:57:23.145Z,7.30
2023-05-14T13:59:51.382Z,7.30
2023-05-14T14:02:19.554Z,5.70
2023-05-14T14:04:49.639Z,6.70
2023-05-14T14:07:17.841Z,6.90
2023-05-14T14:09:45.939Z,5.90
2023-05-14T14:12:14.164Z,6.70
2023-05-14T14:14:42.304Z,9.10
2023-05-14T14:17:10.580Z,9.10
2023-05-14T14:19:39.019Z,8.50
2023-05-14T14:22:07.094Z,6.20
2023-05-14T14:24:35.211Z,8.40
2023-05-14T14:27:03.544Z,9.40
2023-05-14T14:29:31.703Z,9.80
2023-05-14T14:32:00.366Z,8.50
2023-05-14T14:34:28.796Z,3.10
2023-05-14T14:36:56.951Z,6.50
2023-05-14T14:39:25.516Z,5.90
2023-05-14T14:41:53.680Z,5.10
2023-05-14T14:44:22.270Z,4.20
2023-05-14T14:46:50.778Z,5.40
2023-05-14T14:49:18.999Z,7.80
2023-05-14T14:51:47.275Z,4.70
2023-05-14T14:54:15.681Z,5.40
2023-05-14T14:56:45.970Z,4.50
2023-05-14T14:59:14.354Z,7.50
2023-05-14T15:01:43.642Z,6.20
2023-05-14T15:04:12.043Z,5.30
2023-05-14T15:06:40.255Z,6.00
2023-05-14T15:09:09.323Z,5.70
2023-05-14T15:11:37.831Z,5.50
2023-05-14T15:14:06.306Z,8.80
2023-05-14T15:16:34.531Z,8.50
2023-05-14T15:19:02.762Z,6.10
2023-05-14T15:21:32.090Z,7.20
2023-05-14T15:24:00.948Z,6.00
2023-05-14T15:26:28.998Z,8.20
2023-05-14T15:28:58.824Z,8.40
2023-05-14T15:31:27.037Z,11.90
2023-05-14T15:33:56.160Z,8.30
2023-05-14T15:36:24.379Z,9.90
2023-05-14T15:38:52.470Z,18.30
2023-05-14T15:41:21.239Z,12.20
2023-05-14T15:43:50.154Z,13.20
2023-05-14T15:46:18.266Z,10.30
2023-05-14T15:48:46.465Z,12.40
2023-05-14T15:51:15.081Z,7.60
2023-05-14T15:53:43.295Z,5.70
2023-05-14T15:56:11.611Z,9.60
2023-05-14T15:58:39.933Z,7.30
2023-05-14T16:01:08.169Z,6.10
2023-05-14T16:03:36.496Z,4.50
2023-05-14T16:06:04.965Z,9.40
2023-05-14T16:08:33.118Z,5.10
2023-05-14T16:11:01.315Z,13.50
2023-05-14T16:13:29.624Z,24.70
2023-05-14T16:15:59.683Z,23.50
2023-05-14T16:18:28.404Z,9.70
2023-05-14T16:20:57.033Z,10.00
2023-05-14T16:23:25.545Z,14.40
2023-05-14T16:25:53.843Z,8.50
2023-05-14T16:28:22.012Z,11.30
2023-05-14T16:30:50.129Z,10.90
2023-05-14T16:33:18.229Z,9.60
2023-05-14T16:35:46.509Z,7.30
2023-05-14T16:38:14.647Z,6.90
2023-05-14T16:40:42.928Z,6.40
2023-05-14T16:43:11.295Z,8.70
2023-05-14T16:45:40.539Z,5.50
2023-05-14T16:48:08.916Z,6.60
2023-05-14T16:50:37.241Z,5.90
2023-05-14T16:53:05.430Z,10.70
2023-05-14T16:55:33.700Z,7.30
2023-05-14T16:58:01.937Z,11.30
2023-05-14T17:00:30.152Z,13.40
2023-05-14T17:02:58.655Z,9.20
2023-05-14T17:05:27.012Z,9.00
2023-05-14T17:07:55.427Z,5.50
2023-05-14T17:10:25.388Z,7.60
2023-05-14T17:12:53.955Z,9.00
2023-05-14T17:15:41.937Z,6.20
2023-05-14T17:18:12.083Z,8.20
2023-05-14T17:20:40.360Z,9.10
2023-05-14T17:23:08.690Z,9.00
2023-05-14T17:25:37.079Z,6.70
2023-05-14T17:28:05.639Z,11.00
2023-05-14T17:30:33.923Z,6.30
2023-05-14T17:33:02.293Z,8.40
2023-05-14T17:35:30.617Z,5.30
2023-05-14T17:38:00.475Z,7.60
2023-05-14T17:40:29.183Z,6.20
2023-05-14T17:42:57.338Z,11.60
2023-05-14T17:45:26.947Z,6.60
2023-05-14T17:47:55.388Z,5.80
2023-05-14T17:50:23.579Z,7.90
2023-05-14T17:52:51.691Z,6.50
2023-05-14T17:55:20.139Z,9.70
2023-05-14T17:57:48.658Z,5.80
2023-05-14T18:00:17.971Z,7.90
2023-05-14T18:02:46.352Z,14.20
2023-05-14T18:05:14.924Z,15.60
2023-05-14T18:07:43.929Z,7.90
2023-05-14T18:10:12.017Z,9.20
2023-05-14T18:12:40.416Z,9.80
2023-05-14T18:15:08.884Z,11.50
2023-05-14T18:17:37.117Z,9.20
2023-05-14T18:20:06.820Z,13.20
2023-05-14T18:22:35.124Z,14.10
2023-05-14T18:25:03.832Z,15.50
2023-05-14T18:27:31.871Z,11.70
2023-05-14T18:30:00.764Z,9.50
2023-05-14T18:32:30.343Z,9.40
2023-05-14T18:34:59.037Z,11.80
2023-05-14T18:37:27.300Z,15.70
2023-05-14T18:39:55.660Z,11.50
2023-05-14T18:42:24.049Z,11.60
2023-05-14T18:44:52.244Z,6.80
2023-05-14T18:47:23.343Z,8.00
2023-05-14T18:49:55.335Z,8.20
2023-05-14T19:01:20.317Z,6.70
2023-05-14T19:02:36.457Z,6.00
2023-05-14T19:04:10.343Z,6.80
2023-05-14T19:07:19.935Z,6.90
2023-05-14T19:09:58.885Z,8.80
2023-05-14T19:12:27.776Z,6.80
2023-05-14T19:14:56.813Z,5.80
2023-05-14T19:17:25.693Z,7.40
2023-05-14T19:19:56.642Z,6.00
2023-05-14T19:22:27.633Z,10.20
2023-05-14T19:24:55.721Z,7.00
2023-05-14T19:27:24.426Z,6.20
2023-05-14T19:29:56.366Z,12.50
2023-05-14T19:32:27.199Z,8.80
2023-05-14T19:38:38.533Z,5.40
2023-05-14T19:41:27.921Z,10.50
2023-05-14T19:43:56.390Z,6.60
2023-05-14T19:46:24.902Z,12.10
2023-05-14T19:48:53.397Z,7.70
2023-05-14T19:51:22.101Z,7.40
2023-05-14T19:53:50.649Z,13.10
2023-05-14T19:56:18.904Z,6.50
2023-05-14T19:58:55.196Z,8.60
2023-05-14T20:01:50.035Z,8.00
2023-05-14T20:04:20.007Z,14.20
2023-05-14T20:06:49.546Z,12.10
2023-05-14T20:09:18.383Z,7.20
2023-05-14T20:11:48.914Z,15.20
2023-05-14T20:14:18.679Z,16.10
2023-05-14T20:16:50.026Z,13.50
2023-05-14T20:19:20.344Z,19.50
2023-05-14T20:21:48.609Z,5.20
2023-05-14T20:24:16.783Z,7.60
2023-05-14T20:26:44.844Z,7.70
2023-05-14T20:29:14.529Z,7.80
2023-05-14T20:31:42.636Z,6.00
2023-05-14T20:34:10.828Z,7.00
2023-05-14T20:36:39.016Z,5.70
2023-05-14T20:39:08.930Z,12.20
2023-05-14T20:41:37.175Z,6.80
2023-05-14T20:44:05.800Z,4.60
2023-05-14T20:46:33.929Z,4.00
2023-05-14T20:49:02.414Z,6.30
2023-05-14T20:51:31.400Z,5.60
2023-05-14T20:53:59.596Z,5.10
2023-05-14T20:56:27.701Z,5.50
2023-05-14T20:58:56.082Z,5.60
2023-05-14T21:01:24.356Z,6.10
2023-05-14T21:03:52.634Z,4.90
2023-05-14T21:06:21.308Z,9.50
2023-05-14T21:08:49.486Z,5.90
2023-05-14T21:11:17.833Z,7.80
2023-05-14T21:13:46.009Z,4.70
2023-05-14T21:16:14.144Z,7.20
2023-05-14T21:18:42.381Z,4.80
2023-05-14T21:21:10.557Z,8.20
2023-05-14T21:23:38.768Z,12.50
2023-05-14T21:26:07.061Z,5.50
2023-05-14T21:28:35.299Z,4.40
2023-05-14T21:31:03.400Z,7.20
2023-05-14T21:33:31.694Z,7.90
2023-05-14T21:35:59.952Z,9.10
2023-05-14T21:38:28.202Z,6.10
2023-05-14T21:40:56.368Z,6.00
2023-05-14T21:43:24.450Z,8.60
2023-05-14T21:45:52.714Z,6.20
2023-05-14T21:48:22.104Z,11.20
2023-05-14T21:50:50.543Z,8.30
2023-05-14T21:53:18.738Z,6.60
2023-05-14T21:55:46.920Z,4.80
2023-05-14T21:58:15.413Z,9.70
2023-05-14T22:00:43.590Z,7.20
2023-05-14T22:03:11.962Z,7.50
2023-05-14T22:05:40.115Z,5.60
2023-05-14T22:08:08.276Z,6.40
2023-05-14T22:10:36.650Z,7.20
2023-05-14T22:13:05.032Z,5.20
2023-05-14T22:15:33.233Z,6.50
2023-05-14T22:18:03.381Z,5.50
2023-05-14T22:20:31.600Z,9.30
2023-05-14T22:22:59.687Z,4.50
2023-05-14T22:25:27.947Z,5.50
2023-05-14T22:27:56.308Z,6.60
2023-05-14T22:30:24.556Z,8.00
2023-05-14T22:32:53.272Z,7.20
2023-05-14T22:35:21.446Z,5.30
2023-05-14T22:37:49.627Z,5.00
2023-05-14T22:40:17.749Z,5.20
2023-05-14T22:42:45.908Z,8.00
2023-05-14T22:45:14.197Z,6.80
2023-05-14T22:47:42.358Z,8.20
2023-05-14T22:50:11.752Z,6.40
2023-05-14T22:52:40.787Z,7.80
2023-05-14T22:55:09.431Z,6.80
2023-05-14T22:57:38.107Z,5.50
2023-05-14T23:00:08.021Z,7.10
2023-05-14T23:02:36.285Z,7.10
2023-05-14T23:05:05.299Z,9.30
2023-05-14T23:07:33.575Z,6.00
2023-05-14T23:10:02.043Z,7.20
2023-05-14T23:12:30.337Z,6.30
2023-05-14T23:14:59.311Z,5.20
2023-05-14T23:17:27.731Z,5.80
2023-05-14T23:19:56.103Z,6.10
2023-05-14T23:22:24.211Z,7.30
2023-05-14T23:24:52.619Z,6.60
2023-05-14T23:27:20.991Z,4.10
2023-05-14T23:29:49.083Z,6.40
2023-05-14T23:32:17.274Z,9.50
2023-05-14T23:34:45.392Z,18.30
2023-05-14T23:37:13.722Z,10.50
2023-05-14T23:39:41.815Z,26.80
2023-05-14T23:42:10.043Z,23.70
2023-05-14T23:44:38.278Z,57.20
2023-05-14T23:47:08.777Z,25.50
2023-05-14T23:49:37.030Z,35.70
2023-05-14T23:52:05.566Z,36.90
2023-05-14T23:54:33.668Z,35.60
2023-05-14T23:57:03.863Z,33.50
2023-05-14T23:59:32.186Z,20.90
